Time;durP1;ratioP1;P1;durP2;ratioP2;P2;SDS_P1;SDS_P2;PMS_P1;PMS_P2;Temp;Humidity;BMP_temperature;BMP_pressure;BME280_temperature;BME280_humidity;BME280_pressure;Samples;Min_cycle;Max_cycle;Signal;HPM_P1;HPM_P2
2023/07/20 00:00:21;;;;;;;4.78;1.95;;;;;;;;;;5060496;28;20193;-89
2023/07/20 00:02:51;;;;;;;2.92;1.70;;;;;;;;;;5053943;28;20256;-88
2023/07/20 00:05:21;;;;;;;3.53;2.00;;;;;;;;;;5054723;28;20210;-88
2023/07/20 00:07:51;;;;;;;7.90;1.83;;;;;;;;;;5053695;28;20237;-88
2023/07/20 00:10:18;;;;;;;3.65;1.75;;;;;;;;;;5053633;28;20237;-88
2023/07/20 00:12:47;;;;;;;3.10;1.80;;;;;;;;;;5052800;28;20245;-88
2023/07/20 00:15:15;;;;;;;3.25;1.52;;;;;;;;;;5053792;28;20198;-88
2023/07/20 00:17:44;;;;;;;3.28;2.00;;;;;;;;;;5054264;28;20245;-89
2023/07/20 00:20:12;;;;;;;2.05;1.73;;;;;;;;;;5060825;28;20225;-88
2023/07/20 00:22:39;;;;;;;3.78;1.73;;;;;;;;;;5073035;28;20236;-88
2023/07/20 00:25:06;;;;;;;1.70;1.50;;;;;;;;;;5074882;28;20205;-88
2023/07/20 00:27:33;;;;;;;1.60;1.50;;;;;;;;;;5073956;28;20703;-88
2023/07/20 00:30:01;;;;;;;5.07;2.30;;;;;;;;;;5070728;28;20616;-88
2023/07/20 00:32:29;;;;;;;2.63;1.70;;;;;;;;;;5054057;28;20245;-88
2023/07/20 00:34:56;;;;;;;2.78;1.50;;;;;;;;;;5054557;28;20660;-88
2023/07/20 00:37:23;;;;;;;2.33;1.70;;;;;;;;;;5054078;28;20225;-89
2023/07/20 00:39:50;;;;;;;3.58;1.60;;;;;;;;;;5054532;28;20233;-88
2023/07/20 00:42:17;;;;;;;3.53;1.67;;;;;;;;;;5054154;28;20198;-88
2023/07/20 00:44:44;;;;;;;3.28;2.00;;;;;;;;;;5054643;28;20339;-89
2023/07/20 00:47:12;;;;;;;7.40;2.33;;;;;;;;;;5054370;28;20206;-89
2023/07/20 00:49:40;;;;;;;2.13;1.90;;;;;;;;;;5054267;28;20222;-88
2023/07/20 00:52:13;;;;;;;3.40;2.03;;;;;;;;;;5054464;28;20595;-88
2023/07/20 00:54:41;;;;;;;3.22;1.90;;;;;;;;;;5054605;28;20244;-88
2023/07/20 00:57:08;;;;;;;3.95;2.13;;;;;;;;;;5053804;28;20216;-89
2023/07/20 00:59:36;;;;;;;2.70;1.90;;;;;;;;;;5054601;28;20257;-89
2023/07/20 01:02:04;;;;;;;3.15;1.88;;;;;;;;;;5060928;28;20259;-89
2023/07/20 01:04:31;;;;;;;5.32;2.20;;;;;;;;;;5070159;28;20213;-88
2023/07/20 01:07:03;;;;;;;6.68;1.98;;;;;;;;;;5073974;28;20252;-88
2023/07/20 01:09:35;;;;;;;3.03;2.08;;;;;;;;;;5073778;28;20320;-88
2023/07/20 01:12:06;;;;;;;7.03;2.55;;;;;;;;;;5073685;28;20174;-88
2023/07/20 01:14:34;;;;;;;6.88;2.30;;;;;;;;;;5074893;28;20189;-88
2023/07/20 01:17:01;;;;;;;4.30;1.88;;;;;;;;;;5077684;28;20217;-88
2023/07/20 01:19:28;;;;;;;4.30;2.20;;;;;;;;;;5076667;28;20245;-88
2023/07/20 01:21:58;;;;;;;2.40;1.83;;;;;;;;;;5076453;28;20233;-87
2023/07/20 01:24:53;;;;;;;4.45;2.08;;;;;;;;;;5075643;28;20228;-89
2023/07/20 01:27:35;;;;;;;3.38;1.77;;;;;;;;;;5077314;28;20186;-88
2023/07/20 01:30:11;;;;;;;2.28;1.92;;;;;;;;;;5044361;28;20292;-88
2023/07/20 01:32:41;;;;;;;1.98;1.77;;;;;;;;;;5077046;28;20239;-87
2023/07/20 01:35:08;;;;;;;4.75;2.17;;;;;;;;;;5077371;28;20189;-88
2023/07/20 01:37:35;;;;;;;2.30;1.90;;;;;;;;;;5077007;28;20221;-89
2023/07/20 01:40:03;;;;;;;2.25;2.05;;;;;;;;;;5077214;28;20221;-88
2023/07/20 01:42:30;;;;;;;2.65;1.92;;;;;;;;;;5075894;28;20233;-89
2023/07/20 01:44:57;;;;;;;3.30;1.95;;;;;;;;;;5075981;28;20236;-88
2023/07/20 01:47:24;;;;;;;3.85;1.98;;;;;;;;;;5076430;28;20225;-88
2023/07/20 01:49:53;;;;;;;2.78;2.25;;;;;;;;;;5077341;28;20590;-88
2023/07/20 01:52:20;;;;;;;3.63;2.00;;;;;;;;;;5076326;28;20205;-89
2023/07/20 01:54:47;;;;;;;3.83;1.90;;;;;;;;;;5077150;28;20206;-88
2023/07/20 01:57:14;;;;;;;2.67;1.90;;;;;;;;;;5076506;28;20696;-88
2023/07/20 01:59:41;;;;;;;3.22;1.90;;;;;;;;;;5076902;28;20221;-88
2023/07/20 02:02:08;;;;;;;3.05;2.10;;;;;;;;;;5076754;28;20205;-88
2023/07/20 02:04:35;;;;;;;2.15;1.92;;;;;;;;;;5077040;28;20237;-88
2023/07/20 02:07:04;;;;;;;3.40;2.20;;;;;;;;;;5088389;28;20203;-89
2023/07/20 02:09:31;;;;;;;3.13;2.20;;;;;;;;;;5097295;28;20224;-88
2023/07/20 02:11:58;;;;;;;3.45;2.28;;;;;;;;;;5097111;28;20208;-88
2023/07/20 02:14:26;;;;;;;6.20;2.13;;;;;;;;;;5096572;27;20259;-88
2023/07/20 02:16:57;;;;;;;3.60;2.23;;;;;;;;;;5097182;28;20205;-88
2023/07/20 02:19:24;;;;;;;6.57;2.00;;;;;;;;;;5096783;27;20229;-88
2023/07/20 02:21:51;;;;;;;2.83;2.03;;;;;;;;;;5096984;27;20292;-88
2023/07/20 02:24:20;;;;;;;2.20;1.77;;;;;;;;;;5096250;27;20232;-88
2023/07/20 02:26:47;;;;;;;4.07;2.27;;;;;;;;;;5096074;27;20200;-88
2023/07/20 02:29:14;;;;;;;3.27;2.17;;;;;;;;;;5096203;27;20243;-88
2023/07/20 02:31:42;;;;;;;3.28;2.30;;;;;;;;;;5096902;28;20209;-89
2023/07/20 02:34:10;;;;;;;3.17;2.27;;;;;;;;;;5096495;28;20236;-88
2023/07/20 02:36:37;;;;;;;3.13;2.20;;;;;;;;;;5096955;27;20192;-89
2023/07/20 02:39:04;;;;;;;4.33;2.07;;;;;;;;;;5095854;27;20231;-88
2023/07/20 02:41:34;;;;;;;2.80;2.23;;;;;;;;;;5096830;27;20201;-89
2023/07/20 02:44:01;;;;;;;3.20;2.50;;;;;;;;;;5095406;28;20228;-88
2023/07/20 02:46:29;;;;;;;5.00;2.17;;;;;;;;;;5095573;28;20216;-88
2023/07/20 02:48:57;;;;;;;2.83;2.33;;;;;;;;;;5094287;28;20236;-88
2023/07/20 02:51:24;;;;;;;3.07;2.00;;;;;;;;;;5096352;28;20200;-88
2023/07/20 02:53:51;;;;;;;4.00;2.27;;;;;;;;;;5095615;28;20282;-88
2023/07/20 02:56:18;;;;;;;3.07;2.20;;;;;;;;;;5096361;28;20208;-89
2023/07/20 02:58:47;;;;;;;2.40;2.10;;;;;;;;;;5095480;28;20309;-88
2023/07/20 03:01:15;;;;;;;3.20;2.20;;;;;;;;;;5096478;27;20196;-88
2023/07/20 03:03:46;;;;;;;2.50;2.30;;;;;;;;;;5096100;27;20241;-89
2023/07/20 03:06:14;;;;;;;2.50;2.17;;;;;;;;;;5096276;27;20213;-88
2023/07/20 03:08:47;;;;;;;4.20;2.70;;;;;;;;;;5095905;28;20232;-88
2023/07/20 03:11:14;;;;;;;4.80;2.20;;;;;;;;;;5082863;27;20204;-88
2023/07/20 03:13:41;;;;;;;3.23;2.47;;;;;;;;;;5075179;28;20578;-88
2023/07/20 03:16:11;;;;;;;3.23;2.50;;;;;;;;;;5058830;28;20209;-88
2023/07/20 03:18:38;;;;;;;4.90;2.50;;;;;;;;;;5055316;28;20229;-88
2023/07/20 03:21:05;;;;;;;3.13;2.30;;;;;;;;;;5055440;28;20217;-88
2023/07/20 03:23:32;;;;;;;2.43;2.20;;;;;;;;;;5055140;28;20242;-89
2023/07/20 03:26:00;;;;;;;3.23;2.47;;;;;;;;;;5055846;28;20584;-88
2023/07/20 03:28:27;;;;;;;7.73;2.70;;;;;;;;;;5055437;28;20248;-89
2023/07/20 03:30:55;;;;;;;4.90;2.10;;;;;;;;;;5055640;28;20205;-89
2023/07/20 03:33:24;;;;;;;2.93;2.40;;;;;;;;;;5055165;28;20214;-88
2023/07/20 03:35:51;;;;;;;2.53;2.30;;;;;;;;;;5055441;28;20197;-88
2023/07/20 03:38:18;;;;;;;4.00;2.57;;;;;;;;;;5054768;28;20248;-89
2023/07/20 03:40:50;;;;;;;3.07;2.03;;;;;;;;;;5055157;28;20202;-88
2023/07/20 03:43:20;;;;;;;4.13;2.33;;;;;;;;;;5062935;28;20644;-89
2023/07/20 03:45:48;;;;;;;4.27;2.50;;;;;;;;;;5080476;28;20197;-87
2023/07/20 03:48:15;;;;;;;3.17;1.90;;;;;;;;;;5093632;28;20290;-87
2023/07/20 03:50:43;;;;;;;3.43;2.30;;;;;;;;;;5080928;27;20219;-87
2023/07/20 03:53:10;;;;;;;2.17;2.03;;;;;;;;;;5074861;28;20245;-87
2023/07/20 03:55:37;;;;;;;3.03;2.30;;;;;;;;;;5075490;28;20201;-87
2023/07/20 03:58:05;;;;;;;2.30;2.10;;;;;;;;;;5074565;28;20236;-87
2023/07/20 04:00:32;;;;;;;2.43;2.23;;;;;;;;;;5085522;22;20243;-82
2023/07/20 04:02:59;;;;;;;4.30;2.37;;;;;;;;;;5071181;28;20239;-83
2023/07/20 04:05:26;;;;;;;4.37;2.50;;;;;;;;;;5071841;28;20231;-83
2023/07/20 04:07:55;;;;;;;2.77;2.40;;;;;;;;;;5071140;28;20856;-84
2023/07/20 04:10:22;;;;;;;4.33;2.80;;;;;;;;;;5071583;28;20228;-83
2023/07/20 04:12:49;;;;;;;3.10;2.50;;;;;;;;;;5071508;28;20611;-84
2023/07/20 04:15:16;;;;;;;2.80;2.30;;;;;;;;;;5070601;28;20197;-85
2023/07/20 04:17:43;;;;;;;2.40;2.20;;;;;;;;;;5071718;28;20709;-86
2023/07/20 04:20:10;;;;;;;2.57;2.20;;;;;;;;;;5069680;28;20221;-86
2023/07/20 04:22:37;;;;;;;4.33;2.43;;;;;;;;;;5071827;28;20237;-85
2023/07/20 04:25:06;;;;;;;3.43;2.50;;;;;;;;;;5071802;28;20596;-84
2023/07/20 04:27:33;;;;;;;5.27;2.83;;;;;;;;;;5071400;28;20229;-83
2023/07/20 04:30:00;;;;;;;5.37;2.63;;;;;;;;;;5071574;28;20236;-84
2023/07/20 04:32:28;;;;;;;3.93;2.53;;;;;;;;;;5070936;28;20224;-84
2023/07/20 04:34:55;;;;;;;6.57;2.60;;;;;;;;;;5071755;28;20205;-84
2023/07/20 04:37:22;;;;;;;3.30;2.57;;;;;;;;;;5071268;28;20616;-84
2023/07/20 04:39:49;;;;;;;4.73;2.50;;;;;;;;;;5071220;28;20234;-85
2023/07/20 04:42:18;;;;;;;4.90;2.70;;;;;;;;;;5069967;28;20228;-83
2023/07/20 04:44:45;;;;;;;5.10;2.77;;;;;;;;;;5071340;28;20222;-84
2023/07/20 04:47:12;;;;;;;5.60;2.50;;;;;;;;;;5068329;28;20552;-83
2023/07/20 04:49:39;;;;;;;3.03;2.23;;;;;;;;;;5065792;28;20229;-83
2023/07/20 04:52:06;;;;;;;6.00;2.50;;;;;;;;;;5074703;28;20209;-83
2023/07/20 04:54:33;;;;;;;3.80;2.77;;;;;;;;;;5074961;28;20560;-82
2023/07/20 04:57:01;;;;;;;4.27;2.50;;;;;;;;;;5074756;28;20212;-82
2023/07/20 04:59:29;;;;;;;3.00;2.30;;;;;;;;;;5066950;28;20232;-82
2023/07/20 05:01:56;;;;;;;4.17;2.53;;;;;;;;;;5073246;28;20205;-83
2023/07/20 05:04:23;;;;;;;6.13;2.50;;;;;;;;;;5072999;28;20232;-83
2023/07/20 05:06:50;;;;;;;3.43;2.30;;;;;;;;;;5070339;28;20221;-81
2023/07/20 05:09:18;;;;;;;5.10;2.03;;;;;;;;;;5073729;28;20244;-81
2023/07/20 05:11:47;;;;;;;3.63;2.53;;;;;;;;;;5073315;28;20213;-83
2023/07/20 05:14:14;;;;;;;4.73;3.03;;;;;;;;;;5073707;28;20249;-81
2023/07/20 05:16:43;;;;;;;4.20;2.63;;;;;;;;;;5074148;28;20212;-82
2023/07/20 05:19:10;;;;;;;3.63;2.60;;;;;;;;;;5072428;28;20240;-82
2023/07/20 05:21:37;;;;;;;4.33;2.43;;;;;;;;;;5069863;28;20241;-82
2023/07/20 05:24:05;;;;;;;6.03;2.63;;;;;;;;;;5072877;28;20602;-82
2023/07/20 05:26:33;;;;;;;3.07;2.53;;;;;;;;;;5075832;28;20213;-82
2023/07/20 05:29:00;;;;;;;3.50;2.40;;;;;;;;;;5075337;28;20237;-82
2023/07/20 05:31:30;;;;;;;6.53;2.20;;;;;;;;;;5074607;28;20205;-82
2023/07/20 05:33:58;;;;;;;3.70;2.57;;;;;;;;;;5074476;28;20229;-82
2023/07/20 05:36:26;;;;;;;3.70;2.17;;;;;;;;;;5074631;28;20512;-82
2023/07/20 05:38:53;;;;;;;9.53;2.50;;;;;;;;;;5074135;28;20723;-82
2023/07/20 05:41:20;;;;;;;5.33;2.63;;;;;;;;;;5074257;28;20217;-82
2023/07/20 05:43:47;;;;;;;3.40;2.30;;;;;;;;;;5074001;28;20225;-82
2023/07/20 05:46:14;;;;;;;6.57;2.07;;;;;;;;;;5073954;28;20229;-83
2023/07/20 05:48:42;;;;;;;4.17;2.30;;;;;;;;;;5073900;28;20228;-83
2023/07/20 05:51:10;;;;;;;3.40;2.27;;;;;;;;;;5074223;28;20609;-82
2023/07/20 05:53:37;;;;;;;6.83;2.40;;;;;;;;;;5073728;28;20578;-83
2023/07/20 05:56:05;;;;;;;2.60;2.40;;;;;;;;;;5073977;28;20201;-83
2023/07/20 05:58:32;;;;;;;4.30;2.30;;;;;;;;;;5069185;28;20238;-83
2023/07/20 06:00:59;;;;;;;4.87;2.37;;;;;;;;;;5073630;28;20646;-83
2023/07/20 06:03:26;;;;;;;6.70;2.27;;;;;;;;;;5072935;28;20791;-83
2023/07/20 06:05:53;;;;;;;3.23;2.30;;;;;;;;;;5073632;28;20225;-83
2023/07/20 06:08:22;;;;;;;5.50;2.40;;;;;;;;;;5073004;28;20251;-82
2023/07/20 06:10:52;;;;;;;3.80;2.37;;;;;;;;;;5073345;28;20240;-82
2023/07/20 06:13:19;;;;;;;2.10;1.90;;;;;;;;;;5072890;28;20649;-82
2023/07/20 06:15:47;;;;;;;2.33;2.00;;;;;;;;;;5073372;28;20213;-82
2023/07/20 06:18:14;;;;;;;6.83;2.37;;;;;;;;;;5064556;28;20237;-82
2023/07/20 06:20:41;;;;;;;2.43;2.00;;;;;;;;;;5072886;28;20233;-82
2023/07/20 06:23:09;;;;;;;3.07;2.10;;;;;;;;;;5072466;28;20229;-82
2023/07/20 06:25:37;;;;;;;3.03;2.03;;;;;;;;;;5072721;28;20225;-82
2023/07/20 06:28:05;;;;;;;3.30;2.20;;;;;;;;;;5072862;28;20244;-82
2023/07/20 06:30:32;;;;;;;1.80;1.70;;;;;;;;;;5068913;28;20229;-81
2023/07/20 06:32:59;;;;;;;3.80;2.17;;;;;;;;;;5072420;28;20232;-81
2023/07/20 06:35:27;;;;;;;3.50;2.05;;;;;;;;;;5066992;28;20294;-81
2023/07/20 06:37:54;;;;;;;2.92;2.00;;;;;;;;;;5066430;28;20221;-81
2023/07/20 06:40:21;;;;;;;4.13;2.35;;;;;;;;;;5070984;28;20233;-81
2023/07/20 06:42:49;;;;;;;3.00;2.20;;;;;;;;;;5072538;28;20236;-82
2023/07/20 06:45:17;;;;;;;6.70;2.25;;;;;;;;;;5072367;28;20225;-81
2023/07/20 06:47:44;;;;;;;4.13;2.28;;;;;;;;;;5072269;28;20255;-82
2023/07/20 06:50:12;;;;;;;4.03;1.98;;;;;;;;;;5072431;28;20589;-82
2023/07/20 06:52:39;;;;;;;4.75;2.00;;;;;;;;;;5071779;28;20229;-81
2023/07/20 06:55:07;;;;;;;3.17;2.22;;;;;;;;;;5072214;28;20304;-82
2023/07/20 06:57:34;;;;;;;3.53;1.92;;;;;;;;;;5071559;28;20229;-82
2023/07/20 07:00:03;;;;;;;3.60;2.03;;;;;;;;;;5071579;28;20236;-82
2023/07/20 07:02:31;;;;;;;3.92;1.90;;;;;;;;;;5071498;28;20243;-82
2023/07/20 07:04:58;;;;;;;2.65;1.85;;;;;;;;;;5072184;28;20233;-83
2023/07/20 07:07:25;;;;;;;5.00;2.15;;;;;;;;;;5072085;28;20725;-83
2023/07/20 07:09:52;;;;;;;4.85;2.22;;;;;;;;;;5072137;28;20222;-82
2023/07/20 07:12:19;;;;;;;3.17;2.55;;;;;;;;;;5070576;28;20605;-83
2023/07/20 07:14:46;;;;;;;3.03;2.22;;;;;;;;;;5072120;28;20206;-83
2023/07/20 07:17:14;;;;;;;3.65;1.95;;;;;;;;;;5071811;28;20214;-82
2023/07/20 07:19:42;;;;;;;3.92;2.17;;;;;;;;;;5071916;28;20229;-82
2023/07/20 07:22:13;;;;;;;7.93;2.15;;;;;;;;;;5071427;28;20209;-83
2023/07/20 07:24:41;;;;;;;2.17;1.80;;;;;;;;;;5064683;28;20271;-83
2023/07/20 07:27:10;;;;;;;3.38;1.85;;;;;;;;;;5071802;28;20215;-83
2023/07/20 07:29:37;;;;;;;3.78;1.67;;;;;;;;;;5071707;28;20293;-82
2023/07/20 07:32:04;;;;;;;2.30;1.92;;;;;;;;;;5071296;28;20209;-83
2023/07/20 07:34:35;;;;;;;3.47;1.90;;;;;;;;;;5056474;28;20237;-82
2023/07/20 07:37:02;;;;;;;3.13;2.10;;;;;;;;;;5067299;28;20201;-83
2023/07/20 07:39:30;;;;;;;3.50;2.10;;;;;;;;;;5069879;28;20232;-82
2023/07/20 07:42:06;;;;;;;5.55;1.90;;;;;;;;;;5072076;28;20198;-82
2023/07/20 07:44:36;;;;;;;4.38;2.08;;;;;;;;;;5059819;28;20240;-83
2023/07/20 07:47:03;;;;;;;4.13;2.00;;;;;;;;;;5067331;28;20229;-83
2023/07/20 07:49:31;;;;;;;5.20;2.10;;;;;;;;;;5062903;28;21705;-81
2023/07/20 07:52:02;;;;;;;2.13;1.92;;;;;;;;;;5064326;28;20213;-83
2023/07/20 07:54:29;;;;;;;3.38;2.20;;;;;;;;;;5071705;28;20216;-82
2023/07/20 07:56:56;;;;;;;5.10;2.10;;;;;;;;;;5071461;28;20670;-81
2023/07/20 07:59:36;;;;;;;3.15;1.95;;;;;;;;;;5070500;28;20268;-81
2023/07/20 08:02:03;;;;;;;2.47;2.05;;;;;;;;;;5064033;28;20206;-82
2023/07/20 08:04:30;;;;;;;2.40;2.15;;;;;;;;;;5067656;28;20213;-82
2023/07/20 08:06:58;;;;;;;3.53;2.00;;;;;;;;;;5059545;28;20230;-81
2023/07/20 08:09:26;;;;;;;3.15;2.10;;;;;;;;;;5061339;28;20325;-81
2023/07/20 08:11:53;;;;;;;3.15;2.05;;;;;;;;;;5065477;28;20206;-82
2023/07/20 08:14:20;;;;;;;4.15;1.92;;;;;;;;;;5060391;28;20225;-82
2023/07/20 08:16:48;;;;;;;5.60;2.10;;;;;;;;;;5066518;28;20202;-81
2023/07/20 08:19:15;;;;;;;3.25;1.85;;;;;;;;;;5067126;28;20237;-83
2023/07/20 08:21:42;;;;;;;4.35;2.20;;;;;;;;;;5066450;28;20209;-82
2023/07/20 08:24:09;;;;;;;4.40;1.65;;;;;;;;;;5071170;28;20638;-83
2023/07/20 08:26:37;;;;;;;1.90;1.58;;;;;;;;;;5077104;28;20271;-81
2023/07/20 08:29:04;;;;;;;3.22;1.90;;;;;;;;;;5068125;28;20232;-81
2023/07/20 08:31:32;;;;;;;2.78;1.63;;;;;;;;;;5074030;28;20205;-80
2023/07/20 08:34:03;;;;;;;1.65;1.55;;;;;;;;;;5069675;28;20706;-80
2023/07/20 08:36:31;;;;;;;2.67;1.90;;;;;;;;;;5074393;28;20213;-81
2023/07/20 08:38:58;;;;;;;3.22;1.90;;;;;;;;;;5075004;28;20617;-82
2023/07/20 08:41:25;;;;;;;2.08;1.55;;;;;;;;;;5068540;28;20631;-83
2023/07/20 08:43:56;;;;;;;3.60;1.73;;;;;;;;;;5074392;28;20708;-82
2023/07/20 08:46:24;;;;;;;5.88;1.77;;;;;;;;;;5074094;28;20232;-82
2023/07/20 08:48:52;;;;;;;1.80;1.50;;;;;;;;;;5074319;28;20229;-83
2023/07/20 08:51:19;;;;;;;2.08;1.73;;;;;;;;;;5074070;28;20220;-83
2023/07/20 08:53:47;;;;;;;2.50;1.75;;;;;;;;;;5072579;28;20237;-82
2023/07/20 08:56:16;;;;;;;2.17;1.50;;;;;;;;;;5071985;28;20201;-82
2023/07/20 08:58:46;;;;;;;1.38;1.27;;;;;;;;;;5073878;28;20228;-82
2023/07/20 09:01:15;;;;;;;3.50;1.60;;;;;;;;;;5075539;28;20201;-82
2023/07/20 09:03:43;;;;;;;2.78;1.65;;;;;;;;;;5073099;28;20650;-82
2023/07/20 09:06:20;;;;;;;1.70;1.52;;;;;;;;;;5076313;28;20711;-83
2023/07/20 09:08:47;;;;;;;1.58;1.48;;;;;;;;;;5072394;28;20244;-81
2023/07/20 09:11:14;;;;;;;1.58;1.45;;;;;;;;;;5076148;28;20192;-82
2023/07/20 09:13:42;;;;;;;7.13;1.92;;;;;;;;;;5094379;28;20221;-83
2023/07/20 09:16:09;;;;;;;2.10;1.70;;;;;;;;;;5098366;28;20201;-82
2023/07/20 09:18:37;;;;;;;2.80;1.67;;;;;;;;;;5097946;28;20221;-84
2023/07/20 09:21:05;;;;;;;1.65;1.55;;;;;;;;;;5098108;28;20182;-84
2023/07/20 09:23:33;;;;;;;1.48;1.38;;;;;;;;;;5096497;28;20229;-82
2023/07/20 09:26:00;;;;;;;2.75;1.77;;;;;;;;;;5089708;28;20237;-82
2023/07/20 09:28:28;;;;;;;5.47;1.77;;;;;;;;;;5077826;28;20240;-82
2023/07/20 09:30:56;;;;;;;2.72;1.65;;;;;;;;;;5071382;28;20221;-82
2023/07/20 09:33:23;;;;;;;4.80;1.67;;;;;;;;;;5068606;28;20233;-82
2023/07/20 09:35:52;;;;;;;1.50;1.40;;;;;;;;;;5068660;28;20221;-82
2023/07/20 09:38:19;;;;;;;1.60;1.48;;;;;;;;;;5066040;28;20220;-82
2023/07/20 09:40:46;;;;;;;1.80;1.52;;;;;;;;;;5067075;28;20229;-83
2023/07/20 09:43:14;;;;;;;2.13;1.70;;;;;;;;;;5075249;28;20244;-83
2023/07/20 09:45:42;;;;;;;4.47;1.42;;;;;;;;;;5066460;28;20229;-82
2023/07/20 09:48:09;;;;;;;3.17;1.17;;;;;;;;;;5074152;28;20271;-82
2023/07/20 09:50:41;;;;;;;2.13;1.38;;;;;;;;;;5074115;28;20228;-81
2023/07/20 09:53:11;;;;;;;1.48;1.38;;;;;;;;;;5074088;28;20302;-82
2023/07/20 09:55:38;;;;;;;2.35;1.08;;;;;;;;;;5074140;28;20593;-81
2023/07/20 09:58:08;;;;;;;1.88;1.30;;;;;;;;;;5074425;28;20233;-81
2023/07/20 10:00:36;;;;;;;2.45;1.60;;;;;;;;;;5088544;22;20217;-81
2023/07/20 10:03:04;;;;;;;2.22;1.38;;;;;;;;;;5075270;28;20225;-82
2023/07/20 10:05:34;;;;;;;3.10;1.50;;;;;;;;;;5075062;28;20209;-81
2023/07/20 10:08:04;;;;;;;4.13;1.67;;;;;;;;;;5074519;28;20298;-81
2023/07/20 10:10:33;;;;;;;4.82;1.30;;;;;;;;;;5074228;28;20225;-82
2023/07/20 10:13:02;;;;;;;3.75;1.55;;;;;;;;;;5067234;28;20221;-82
2023/07/20 10:15:31;;;;;;;1.92;1.50;;;;;;;;;;5074306;28;20202;-86
2023/07/20 10:18:01;;;;;;;1.85;1.52;;;;;;;;;;5074885;28;20227;-83
2023/07/20 10:20:28;;;;;;;2.83;1.40;;;;;;;;;;5074735;28;20228;-82
2023/07/20 10:22:57;;;;;;;1.27;0.95;;;;;;;;;;5074777;28;20221;-83
2023/07/20 10:25:25;;;;;;;3.72;1.23;;;;;;;;;;5075271;28;20206;-82
2023/07/20 10:27:53;;;;;;;2.63;1.50;;;;;;;;;;5075096;28;20224;-82
2023/07/20 10:30:21;;;;;;;1.20;1.20;;;;;;;;;;5074843;28;20225;-83
2023/07/20 10:32:49;;;;;;;1.63;1.45;;;;;;;;;;5074552;28;20777;-82
2023/07/20 10:35:16;;;;;;;1.33;1.23;;;;;;;;;;5074607;28;20209;-83
2023/07/20 10:37:50;;;;;;;1.20;1.10;;;;;;;;;;5074439;28;20312;-82
2023/07/20 10:40:31;;;;;;;1.42;1.30;;;;;;;;;;5075113;28;20271;-83
2023/07/20 10:43:00;;;;;;;5.53;1.30;;;;;;;;;;5067963;28;20236;-83
2023/07/20 10:45:43;;;;;;;3.00;1.40;;;;;;;;;;5074627;28;20213;-84
2023/07/20 10:48:17;;;;;;;1.20;1.10;;;;;;;;;;5066776;28;20230;-83
2023/07/20 10:50:44;;;;;;;2.53;1.23;;;;;;;;;;5066610;28;20245;-83
2023/07/20 10:53:12;;;;;;;2.35;1.10;;;;;;;;;;5073778;28;20221;-83
2023/07/20 10:55:39;;;;;;;2.08;1.15;;;;;;;;;;5075011;28;20632;-83
2023/07/20 10:58:12;;;;;;;1.35;1.20;;;;;;;;;;5068176;28;20266;-83
2023/07/20 11:00:39;;;;;;;2.72;1.27;;;;;;;;;;5073856;28;20233;-82
2023/07/20 11:03:06;;;;;;;1.67;1.30;;;;;;;;;;5074197;28;20253;-82
2023/07/20 11:05:37;;;;;;;3.22;1.10;;;;;;;;;;5072745;28;20205;-81
2023/07/20 11:08:08;;;;;;;2.50;1.40;;;;;;;;;;5068184;28;20222;-82
2023/07/20 11:10:35;;;;;;;1.85;1.30;;;;;;;;;;5074456;28;20286;-81
2023/07/20 11:13:17;;;;;;;2.03;0.98;;;;;;;;;;5065865;28;20225;-81
2023/07/20 11:15:49;;;;;;;2.33;1.20;;;;;;;;;;5052277;28;20216;-82
2023/07/20 11:18:16;;;;;;;1.75;1.33;;;;;;;;;;5064129;28;20225;-83
2023/07/20 11:20:43;;;;;;;1.77;1.30;;;;;;;;;;5073884;28;20232;-82
2023/07/20 11:23:11;;;;;;;2.22;1.40;;;;;;;;;;5074190;28;20248;-82
2023/07/20 11:25:39;;;;;;;1.27;1.15;;;;;;;;;;5074452;28;20216;-83
2023/07/20 11:28:09;;;;;;;1.75;1.20;;;;;;;;;;5073645;28;20229;-82
2023/07/20 11:30:36;;;;;;;2.75;1.45;;;;;;;;;;5065818;28;20229;-82
2023/07/20 11:33:04;;;;;;;1.52;1.27;;;;;;;;;;5073598;28;20227;-82
2023/07/20 11:35:32;;;;;;;2.53;1.50;;;;;;;;;;5073720;28;20718;-82
2023/07/20 11:37:59;;;;;;;2.03;1.23;;;;;;;;;;5073231;28;20240;-83
2023/07/20 11:40:27;;;;;;;2.20;1.38;;;;;;;;;;5067489;28;20229;-81
2023/07/20 11:42:55;;;;;;;1.33;1.20;;;;;;;;;;5073774;28;20229;-82
2023/07/20 11:45:22;;;;;;;1.30;1.20;;;;;;;;;;5073322;28;20208;-82
2023/07/20 11:47:49;;;;;;;4.22;1.58;;;;;;;;;;5060659;28;20249;-82
2023/07/20 11:50:17;;;;;;;3.95;1.40;;;;;;;;;;5068599;28;20225;-82
2023/07/20 11:52:45;;;;;;;1.35;1.13;;;;;;;;;;5056720;28;20239;-82
2023/07/20 11:55:13;;;;;;;0.93;0.82;;;;;;;;;;5074206;28;20805;-82
2023/07/20 11:57:40;;;;;;;2.03;1.30;;;;;;;;;;5072058;28;20233;-82
2023/07/20 12:00:11;;;;;;;2.17;1.10;;;;;;;;;;5073430;28;20256;-84
2023/07/20 12:02:40;;;;;;;1.85;1.58;;;;;;;;;;5073700;28;20240;-85
2023/07/20 12:05:08;;;;;;;4.28;1.52;;;;;;;;;;5073995;28;20232;-85
2023/07/20 12:07:39;;;;;;;1.38;1.10;;;;;;;;;;5065129;28;20236;-84
2023/07/20 12:10:07;;;;;;;3.08;1.30;;;;;;;;;;5074728;28;20221;-85
2023/07/20 12:12:34;;;;;;;1.55;1.15;;;;;;;;;;5075446;28;20261;-85
2023/07/20 12:15:15;;;;;;;1.52;1.10;;;;;;;;;;5075727;28;20201;-85
2023/07/20 12:17:43;;;;;;;2.83;1.15;;;;;;;;;;5068338;28;20283;-85
2023/07/20 12:20:11;;;;;;;3.28;1.20;;;;;;;;;;5074599;28;20228;-84
2023/07/20 12:22:41;;;;;;;1.40;1.30;;;;;;;;;;5065165;28;20233;-85
2023/07/20 12:25:09;;;;;;;1.25;1.17;;;;;;;;;;5068786;28;20202;-85
2023/07/20 12:27:38;;;;;;;1.08;0.98;;;;;;;;;;5065308;28;20366;-85
2023/07/20 12:30:06;;;;;;;3.97;1.40;;;;;;;;;;5068886;28;20234;-87
2023/07/20 12:32:33;;;;;;;1.73;1.40;;;;;;;;;;5070577;28;20237;-84
2023/07/20 12:35:01;;;;;;;1.30;1.00;;;;;;;;;;5070000;28;20214;-86
2023/07/20 12:37:28;;;;;;;1.40;1.20;;;;;;;;;;5069860;28;20397;-86
2023/07/20 12:39:56;;;;;;;2.47;1.20;;;;;;;;;;5067548;28;20229;-85
2023/07/20 12:42:23;;;;;;;1.33;1.17;;;;;;;;;;5069143;28;20236;-85
2023/07/20 12:44:50;;;;;;;1.27;1.17;;;;;;;;;;5065714;28;20197;-84
2023/07/20 12:47:18;;;;;;;2.22;1.38;;;;;;;;;;5072138;28;20326;-85
2023/07/20 12:49:46;;;;;;;2.45;1.52;;;;;;;;;;5073341;28;20225;-85
2023/07/20 12:52:14;;;;;;;1.15;1.00;;;;;;;;;;5066089;28;20201;-85
2023/07/20 12:54:41;;;;;;;1.63;0.82;;;;;;;;;;5065479;28;20197;-85
2023/07/20 12:57:09;;;;;;;2.58;1.23;;;;;;;;;;5073001;28;20205;-86
2023/07/20 12:59:37;;;;;;;2.17;0.95;;;;;;;;;;5073248;28;20245;-83
2023/07/20 13:02:04;;;;;;;0.93;0.93;;;;;;;;;;5064132;28;20215;-84
2023/07/20 13:04:31;;;;;;;1.08;1.00;;;;;;;;;;5064346;28;20218;-85
2023/07/20 13:06:59;;;;;;;1.20;1.10;;;;;;;;;;5060572;28;20236;-84
2023/07/20 13:09:26;;;;;;;1.10;0.98;;;;;;;;;;5068677;28;20219;-85
2023/07/20 13:11:53;;;;;;;1.85;1.08;;;;;;;;;;5069119;28;20205;-84
2023/07/20 13:14:22;;;;;;;1.40;0.98;;;;;;;;;;5071594;28;20232;-86
2023/07/20 13:16:49;;;;;;;2.88;1.30;;;;;;;;;;5076504;28;20205;-87
2023/07/20 13:19:16;;;;;;;1.98;1.10;;;;;;;;;;5071806;28;20225;-86
2023/07/20 13:21:43;;;;;;;1.30;1.20;;;;;;;;;;5066291;28;20209;-85
2023/07/20 13:24:10;;;;;;;1.50;1.13;;;;;;;;;;5070558;28;20225;-85
2023/07/20 13:26:37;;;;;;;1.75;1.30;;;;;;;;;;5068669;28;20585;-85
2023/07/20 13:29:04;;;;;;;1.48;1.30;;;;;;;;;;5075993;28;20243;-86
2023/07/20 13:31:33;;;;;;;2.40;1.20;;;;;;;;;;5068910;28;20229;-87
2023/07/20 13:34:00;;;;;;;2.20;1.27;;;;;;;;;;5070933;28;20291;-86
2023/07/20 13:36:27;;;;;;;4.20;1.30;;;;;;;;;;5068362;28;20205;-86
2023/07/20 13:38:54;;;;;;;2.30;1.20;;;;;;;;;;5076492;28;20240;-86
2023/07/20 13:41:22;;;;;;;2.90;1.10;;;;;;;;;;5071135;28;20308;-85
2023/07/20 13:43:49;;;;;;;2.08;1.33;;;;;;;;;;5063784;28;20236;-85
2023/07/20 13:46:16;;;;;;;1.70;1.40;;;;;;;;;;5070016;28;20206;-84
2023/07/20 13:48:45;;;;;;;2.35;1.40;;;;;;;;;;5074549;28;20616;-83
2023/07/20 13:51:12;;;;;;;1.55;1.40;;;;;;;;;;5075663;28;20248;-83
2023/07/20 13:53:39;;;;;;;1.42;1.10;;;;;;;;;;5066704;28;20229;-85
2023/07/20 13:56:06;;;;;;;1.50;1.40;;;;;;;;;;5068406;28;20198;-85
2023/07/20 13:58:33;;;;;;;3.58;1.70;;;;;;;;;;5058897;28;20244;-84
2023/07/20 14:01:01;;;;;;;1.10;1.00;;;;;;;;;;5069484;28;20238;-81
2023/07/20 14:03:28;;;;;;;1.30;1.20;;;;;;;;;;5069241;28;20224;-82
2023/07/20 14:05:57;;;;;;;3.25;1.60;;;;;;;;;;5062699;28;20214;-83
2023/07/20 14:08:24;;;;;;;1.63;1.30;;;;;;;;;;5062593;28;20767;-82
2023/07/20 14:10:51;;;;;;;1.75;1.35;;;;;;;;;;5067166;28;20225;-82
2023/07/20 14:13:18;;;;;;;1.40;1.30;;;;;;;;;;5062889;28;20241;-82
2023/07/20 14:15:46;;;;;;;4.30;1.35;;;;;;;;;;5072998;28;20205;-81
2023/07/20 14:18:13;;;;;;;3.60;1.40;;;;;;;;;;5063951;28;20345;-82
2023/07/20 14:20:40;;;;;;;4.28;1.38;;;;;;;;;;5070767;28;20237;-82
2023/07/20 14:23:09;;;;;;;1.88;1.25;;;;;;;;;;5061358;28;20233;-84
2023/07/20 14:25:36;;;;;;;2.03;1.38;;;;;;;;;;5063518;28;20213;-82
2023/07/20 14:28:03;;;;;;;2.92;1.23;;;;;;;;;;5069622;28;20238;-82
2023/07/20 14:30:30;;;;;;;2.10;1.38;;;;;;;;;;5070670;28;20225;-82
2023/07/20 14:32:57;;;;;;;2.15;1.20;;;;;;;;;;5073671;28;20232;-82
2023/07/20 14:35:24;;;;;;;1.50;1.30;;;;;;;;;;5074585;28;20205;-82
2023/07/20 14:37:52;;;;;;;1.65;1.30;;;;;;;;;;5073277;28;20742;-82
2023/07/20 14:40:20;;;;;;;4.07;1.50;;;;;;;;;;5069714;28;20236;-84
2023/07/20 14:42:48;;;;;;;1.23;1.20;;;;;;;;;;5064899;28;20247;-83
2023/07/20 14:45:16;;;;;;;1.10;1.00;;;;;;;;;;5076534;28;20202;-84
2023/07/20 14:47:43;;;;;;;3.05;1.35;;;;;;;;;;5064973;28;20234;-84